Time;durP1;ratioP1;P1;durP2;ratioP2;P2;SDS_P1;SDS_P2;PMS_P1;PMS_P2;Temp;Humidity;BMP_temperature;BMP_pressure;BME280_temperature;BME280_humidity;BME280_pressure;Samples;Min_cycle;Max_cycle;Signal;HPM_P1;HPM_P2
2024/01/24 00:00:14;;;;;;;11.27;4.22;;;;;;;12.59;100.00;101189.78;5092402;27;20313;-73
2024/01/24 00:02:40;;;;;;;7.03;4.03;;;;;;;12.61;100.00;101165.63;5095836;27;20051;-73
2024/01/24 00:05:06;;;;;;;8.82;3.83;;;;;;;12.67;100.00;101166.03;5101281;27;20047;-73
2024/01/24 00:07:31;;;;;;;8.73;3.83;;;;;;;12.68;100.00;101165.09;5072311;28;20048;-73
2024/01/24 00:09:57;;;;;;;11.48;3.88;;;;;;;12.62;100.00;101162.81;5087981;27;20408;-72
2024/01/24 00:12:23;;;;;;;11.43;3.50;;;;;;;12.63;100.00;101158.31;5089453;27;20043;-73
2024/01/24 00:14:48;;;;;;;13.35;3.92;;;;;;;12.71;100.00;101142.63;5093419;27;20039;-73
2024/01/24 00:17:14;;;;;;;10.27;4.22;;;;;;;12.73;100.00;101158.56;5094580;27;20040;-73
2024/01/24 00:19:39;;;;;;;10.75;3.72;;;;;;;12.78;100.00;101135.88;5093053;27;20044;-72
2024/01/24 00:22:05;;;;;;;9.80;3.17;;;;;;;12.84;100.00;101126.56;5097940;27;20045;-73
2024/01/24 00:24:31;;;;;;;6.90;2.70;;;;;;;12.89;100.00;101145.84;5099150;27;20036;-73
2024/01/24 00:26:57;;;;;;;10.35;3.63;;;;;;;12.91;100.00;101149.31;5089684;27;20134;-73
2024/01/24 00:29:22;;;;;;;9.05;2.92;;;;;;;12.96;100.00;101137.31;5094371;27;20027;-73
2024/01/24 00:31:51;;;;;;;6.07;2.80;;;;;;;12.98;100.00;101110.44;5071348;28;20350;-73
2024/01/24 00:34:16;;;;;;;7.07;2.75;;;;;;;13.04;100.00;101109.16;5092837;27;20520;-73
2024/01/24 00:36:42;;;;;;;7.40;2.40;;;;;;;13.12;100.00;101121.03;5092593;27;20556;-73
2024/01/24 00:39:08;;;;;;;11.25;3.10;;;;;;;13.00;100.00;101110.31;5059702;27;20037;-72
2024/01/24 00:41:33;;;;;;;6.20;3.25;;;;;;;12.97;100.00;101106.06;5089207;27;20285;-72
2024/01/24 00:43:59;;;;;;;6.20;2.25;;;;;;;13.10;100.00;101108.72;5069510;28;20063;-72
2024/01/24 00:46:25;;;;;;;6.72;2.28;;;;;;;13.05;100.00;101121.56;5095323;27;20492;-73
2024/01/24 00:48:50;;;;;;;4.40;1.90;;;;;;;13.08;100.00;101116.88;5096786;27;20036;-73
2024/01/24 00:51:16;;;;;;;4.25;1.90;;;;;;;13.12;100.00;101106.81;5096581;27;20024;-73
2024/01/24 00:53:49;;;;;;;5.55;2.03;;;;;;;13.13;100.00;101109.38;5092640;27;20469;-73
2024/01/24 00:56:15;;;;;;;10.43;1.95;;;;;;;13.16;100.00;101109.16;5097985;27;20085;-72
2024/01/24 00:58:41;;;;;;;1.85;1.67;;;;;;;13.10;100.00;101104.25;5091505;27;20104;-73
2024/01/24 01:01:06;;;;;;;4.38;2.00;;;;;;;13.23;100.00;101096.22;5093173;27;20140;-72
2024/01/24 01:03:32;;;;;;;3.90;1.52;;;;;;;13.24;100.00;101110.47;5094411;27;20163;-73
2024/01/24 01:05:58;;;;;;;2.38;2.08;;;;;;;13.20;100.00;101088.34;5068848;28;20037;-73
2024/01/24 01:08:23;;;;;;;2.33;1.20;;;;;;;13.22;100.00;101083.81;5094569;27;20322;-73
2024/01/24 01:10:49;;;;;;;3.45;1.50;;;;;;;13.29;100.00;101113.69;5094432;27;20036;-72
2024/01/24 01:13:14;;;;;;;3.55;1.70;;;;;;;13.26;100.00;101111.22;5114604;27;20105;-73
2024/01/24 01:15:41;;;;;;;2.78;1.63;;;;;;;13.20;100.00;101116.03;5089288;27;20647;-73
2024/01/24 01:18:06;;;;;;;4.40;1.20;;;;;;;13.23;100.00;101119.47;5072100;27;20043;-73
2024/01/24 01:20:32;;;;;;;3.90;1.60;;;;;;;13.16;100.00;101119.88;5097761;27;20138;-72
2024/01/24 01:22:57;;;;;;;2.28;1.60;;;;;;;13.16;100.00;101132.41;5095403;27;20036;-72
2024/01/24 01:25:23;;;;;;;3.28;1.75;;;;;;;13.12;100.00;101134.44;5094673;27;20040;-72
2024/01/24 01:27:48;;;;;;;2.75;2.00;;;;;;;13.07;100.00;101147.28;5104556;27;20032;-72
2024/01/24 01:30:14;;;;;;;12.95;3.03;;;;;;;13.04;100.00;101141.28;5079096;27;20196;-73
2024/01/24 01:32:39;;;;;;;4.13;3.20;;;;;;;12.90;100.00;101150.25;5078502;27;20075;-73
2024/01/24 01:35:06;;;;;;;6.43;2.83;;;;;;;12.88;100.00;101153.03;5073928;27;20063;-73
2024/01/24 01:37:32;;;;;;;2.65;2.45;;;;;;;12.74;100.00;101168.31;5095060;27;20067;-73
2024/01/24 01:39:58;;;;;;;2.33;2.10;;;;;;;12.70;100.00;101186.38;5067458;28;20047;-73
2024/01/24 01:42:24;;;;;;;6.18;2.53;;;;;;;12.60;100.00;101190.63;5069955;28;20063;-73
2024/01/24 01:44:49;;;;;;;5.03;2.90;;;;;;;12.48;100.00;101215.53;5072051;28;20021;-74
2024/01/24 01:47:16;;;;;;;4.95;3.80;;;;;;;12.53;100.00;101222.28;5074503;28;20037;-74
2024/01/24 01:49:44;;;;;;;4.90;3.53;;;;;;;12.44;100.00;101228.22;5069414;28;20330;-73
2024/01/24 01:52:11;;;;;;;5.25;3.78;;;;;;;12.39;100.00;101228.53;5076580;28;20024;-73
2024/01/24 01:54:38;;;;;;;6.82;3.20;;;;;;;12.41;100.00;101231.97;5081728;27;20024;-74
2024/01/24 01:57:05;;;;;;;5.82;4.28;;;;;;;12.35;100.00;101229.72;5072155;28;20036;-73
2024/01/24 01:59:32;;;;;;;5.68;4.43;;;;;;;12.30;100.00;101229.16;5068318;28;20048;-74
2024/01/24 02:02:00;;;;;;;5.35;4.65;;;;;;;12.32;100.00;101237.06;5063888;28;20503;-73
2024/01/24 02:04:27;;;;;;;5.95;4.32;;;;;;;12.29;100.00;101242.59;5074462;27;20058;-74
2024/01/24 02:06:55;;;;;;;8.95;5.47;;;;;;;12.26;100.00;101232.09;5076957;28;20190;-74
2024/01/24 02:09:21;;;;;;;4.38;3.88;;;;;;;12.27;100.00;101231.16;5080244;28;20123;-74
2024/01/24 02:11:49;;;;;;;6.22;3.80;;;;;;;12.24;100.00;101215.28;5080058;28;20069;-73
2024/01/24 02:14:15;;;;;;;4.45;4.05;;;;;;;12.24;100.00;101228.66;5073581;28;20107;-74
2024/01/24 02:16:41;;;;;;;5.15;3.70;;;;;;;12.25;100.00;101235.72;5074100;28;20039;-75
2024/01/24 02:19:06;;;;;;;4.75;3.60;;;;;;;12.29;100.00;101240.78;5075635;28;20113;-74
2024/01/24 02:21:33;;;;;;;6.00;4.25;;;;;;;12.23;100.00;101243.00;5063434;28;20040;-73
2024/01/24 02:24:00;;;;;;;6.38;3.65;;;;;;;12.26;100.00;101240.97;5066655;28;20110;-74
2024/01/24 02:26:25;;;;;;;6.13;3.67;;;;;;;12.24;100.00;101229.50;5073291;28;20656;-75
2024/01/24 02:28:51;;;;;;;7.30;3.70;;;;;;;12.30;100.00;101233.59;5072066;28;20036;-74
2024/01/24 02:31:16;;;;;;;4.53;3.42;;;;;;;12.26;100.00;101226.75;5067701;28;20861;-74
2024/01/24 02:33:42;;;;;;;6.13;3.03;;;;;;;12.21;100.00;101223.53;5084334;27;22081;-74
2024/01/24 02:36:09;;;;;;;4.72;3.95;;;;;;;12.18;100.00;101214.72;5075634;27;20044;-74
2024/01/24 02:38:35;;;;;;;3.92;2.83;;;;;;;12.24;100.00;101217.97;5092242;27;20038;-74
2024/01/24 02:41:01;;;;;;;3.15;2.85;;;;;;;12.25;100.00;101235.72;5083993;27;20038;-74
2024/01/24 02:43:27;;;;;;;3.92;2.63;;;;;;;12.27;100.00;101223.13;5075590;28;20137;-74
2024/01/24 02:45:53;;;;;;;2.70;2.30;;;;;;;12.25;100.00;101233.94;5098778;27;20032;-74
2024/01/24 02:48:18;;;;;;;3.42;3.10;;;;;;;12.19;100.00;101227.13;5093021;27;20037;-74
2024/01/24 02:50:44;;;;;;;2.50;2.30;;;;;;;12.22;100.00;101226.09;5109974;27;20050;-74
2024/01/24 02:53:09;;;;;;;2.50;2.30;;;;;;;12.21;100.00;101224.38;5075894;27;20278;-74
2024/01/24 02:55:35;;;;;;;3.65;2.15;;;;;;;12.24;100.00;101224.16;5071509;28;20040;-74
2024/01/24 02:58:00;;;;;;;4.70;2.67;;;;;;;12.23;100.00;101248.34;5095313;27;20028;-73
2024/01/24 03:00:27;;;;;;;3.35;2.30;;;;;;;12.20;100.00;101211.97;5085937;27;20117;-73
2024/01/24 03:02:53;;;;;;;2.22;1.95;;;;;;;12.21;100.00;101227.06;5092476;27;20036;-74
2024/01/24 03:05:18;;;;;;;2.70;1.65;;;;;;;12.26;100.00;101224.94;5092391;27;20029;-73
2024/01/24 03:07:44;;;;;;;2.20;1.90;;;;;;;12.27;100.00;101228.47;5094951;27;20033;-74
2024/01/24 03:10:09;;;;;;;1.83;1.63;;;;;;;12.33;100.00;101226.25;5098305;27;20109;-74
2024/01/24 03:12:35;;;;;;;2.25;1.80;;;;;;;12.30;100.00;101237.16;5088364;27;20216;-74
2024/01/24 03:15:01;;;;;;;2.58;2.38;;;;;;;12.23;100.00;101237.63;5063462;28;20036;-74
2024/01/24 03:17:27;;;;;;;2.72;1.80;;;;;;;12.35;100.00;101226.13;5090733;27;20118;-73
2024/01/24 03:19:52;;;;;;;2.13;1.77;;;;;;;12.33;100.00;101199.50;5089771;27;20097;-74
2024/01/24 03:22:18;;;;;;;5.05;1.80;;;;;;;12.39;100.00;101235.69;5090472;27;20098;-74
2024/01/24 03:24:44;;;;;;;2.25;2.05;;;;;;;12.34;100.00;101225.28;5091994;27;20047;-73
2024/01/24 03:27:11;;;;;;;2.70;2.10;;;;;;;12.22;100.00;101227.91;5072782;27;20043;-75
2024/01/24 03:29:37;;;;;;;2.53;2.13;;;;;;;12.26;100.00;101251.69;5091276;27;20042;-73
2024/01/24 03:32:02;;;;;;;6.78;2.83;;;;;;;12.22;100.00;101252.84;5092669;27;20036;-73
2024/01/24 03:34:31;;;;;;;2.58;1.50;;;;;;;12.36;100.00;101225.22;5089619;27;20779;-73
2024/01/24 03:36:56;;;;;;;4.13;3.58;;;;;;;12.30;100.00;101228.25;5089767;27;20040;-74
2024/01/24 03:39:22;;;;;;;4.28;2.28;;;;;;;12.36;100.00;101227.88;5092936;27;20567;-73
2024/01/24 03:41:48;;;;;;;4.55;2.42;;;;;;;12.25;100.00;101223.22;5090373;27;20037;-72
2024/01/24 03:44:13;;;;;;;5.63;1.90;;;;;;;12.34;100.00;101219.09;5087961;27;20078;-73
2024/01/24 03:46:39;;;;;;;6.70;2.35;;;;;;;12.23;100.00;101225.13;5086002;27;20529;-73
2024/01/24 03:49:04;;;;;;;3.17;2.17;;;;;;;12.24;100.00;101234.84;5090483;27;20120;-73
2024/01/24 03:51:30;;;;;;;4.85;2.55;;;;;;;12.19;100.00;101236.97;5092695;27;20102;-73
2024/01/24 03:53:57;;;;;;;6.43;2.80;;;;;;;12.22;100.00;101244.81;5089715;27;20028;-73
2024/01/24 03:56:22;;;;;;;8.10;2.13;;;;;;;12.17;100.00;101212.16;5082375;27;20508;-74
2024/01/24 03:58:48;;;;;;;6.70;2.28;;;;;;;12.15;100.00;101211.41;5083094;27;20924;-74
2024/01/24 04:01:13;;;;;;;6.80;2.33;;;;;;;12.15;100.00;101201.56;5101044;27;20028;-74
2024/01/24 04:03:39;;;;;;;18.77;2.75;;;;;;;12.20;100.00;101198.59;5085141;27;20036;-75
2024/01/24 04:06:04;;;;;;;5.50;2.08;;;;;;;12.22;100.00;101201.16;5090981;27;20027;-74
2024/01/24 04:08:30;;;;;;;8.65;2.67;;;;;;;12.31;100.00;101181.88;5075825;27;20120;-74
2024/01/24 04:10:55;;;;;;;8.90;3.08;;;;;;;12.30;100.00;101193.50;5070992;27;20126;-75
2024/01/24 04:13:21;;;;;;;8.90;3.70;;;;;;;12.37;100.00;101194.81;5091050;27;20036;-75
2024/01/24 04:15:47;;;;;;;6.88;3.30;;;;;;;12.34;100.00;101195.88;5072408;27;20501;-74
2024/01/24 04:18:12;;;;;;;9.55;4.15;;;;;;;12.30;100.00;101226.47;5063862;27;20508;-75
2024/01/24 04:20:38;;;;;;;12.80;4.45;;;;;;;12.28;100.00;101243.56;5062651;27;20059;-75
2024/01/24 04:23:04;;;;;;;12.02;4.70;;;;;;;12.22;100.00;101218.06;5073528;27;20031;-75
2024/01/24 04:25:30;;;;;;;16.45;4.82;;;;;;;12.29;100.00;101232.75;5087204;27;20200;-74
2024/01/24 04:27:55;;;;;;;11.95;3.83;;;;;;;12.16;100.00;101221.16;5074065;27;20109;-75
2024/01/24 04:30:21;;;;;;;10.02;3.78;;;;;;;12.11;100.00;101209.88;5071696;27;20028;-74
2024/01/24 04:32:47;;;;;;;14.45;3.70;;;;;;;12.04;100.00;101216.56;5079773;27;20883;-75
2024/01/24 04:35:13;;;;;;;13.80;3.10;;;;;;;12.00;100.00;101185.63;5074635;27;20753;-75
2024/01/24 04:37:38;;;;;;;14.05;3.10;;;;;;;11.90;100.00;101180.03;5088231;27;20048;-75
2024/01/24 04:40:06;;;;;;;14.57;3.95;;;;;;;11.95;100.00;101193.09;5089561;27;20040;-73
2024/01/24 04:42:32;;;;;;;20.50;4.25;;;;;;;12.00;100.00;101173.16;5086392;27;20051;-73
2024/01/24 04:44:57;;;;;;;16.83;4.10;;;;;;;11.99;100.00;101182.09;5089664;27;20036;-74
2024/01/24 04:47:23;;;;;;;25.33;5.13;;;;;;;12.01;100.00;101180.22;5095242;27;20481;-73
2024/01/24 04:49:49;;;;;;;24.58;4.90;;;;;;;12.02;100.00;101163.22;5094153;27;20787;-74
2024/01/24 04:52:15;;;;;;;30.92;4.88;;;;;;;12.10;100.00;101184.13;5074479;27;20522;-73
2024/01/24 04:54:41;;;;;;;31.50;5.47;;;;;;;12.13;100.00;101189.25;5093495;27;20051;-73
2024/01/24 04:57:07;;;;;;;22.88;4.88;;;;;;;12.02;100.00;101200.63;5089772;27;20036;-73
2024/01/24 04:59:33;;;;;;;17.08;4.97;;;;;;;12.06;100.00;101226.22;5093962;27;20036;-73
2024/01/24 05:01:58;;;;;;;23.60;6.45;;;;;;;12.09;100.00;101211.78;5095203;27;20796;-74
2024/01/24 05:04:24;;;;;;;30.48;6.18;;;;;;;12.13;100.00;101254.25;5091518;27;20033;-74
2024/01/24 05:06:49;;;;;;;19.85;5.07;;;;;;;11.98;100.00;101247.22;5100400;27;20872;-74
2024/01/24 05:09:15;;;;;;;21.77;6.05;;;;;;;12.00;100.00;101248.00;5099369;27;20074;-73
2024/01/24 05:11:41;;;;;;;26.95;5.10;;;;;;;12.06;100.00;101258.28;5097219;27;20587;-74
2024/01/24 05:14:07;;;;;;;28.55;5.60;;;;;;;12.07;100.00;101281.38;5090774;27;20059;-73
2024/01/24 05:16:32;;;;;;;29.73;5.30;;;;;;;12.11;100.00;101276.72;5080233;27;20948;-73
2024/01/24 05:18:58;;;;;;;35.38;6.78;;;;;;;12.05;100.00;101294.00;5072882;28;20040;-74
2024/01/24 05:21:24;;;;;;;40.53;6.57;;;;;;;12.00;100.00;101288.09;5096524;27;20105;-73
2024/01/24 05:23:51;;;;;;;30.42;6.30;;;;;;;11.98;100.00;101257.91;5073756;28;20064;-74
2024/01/24 05:26:16;;;;;;;32.28;6.28;;;;;;;11.92;100.00;101243.13;5114771;27;20244;-75
2024/01/24 05:28:42;;;;;;;35.40;7.07;;;;;;;12.00;100.00;101252.44;5087134;27;20584;-74
2024/01/24 05:31:07;;;;;;;37.15;8.13;;;;;;;11.98;100.00;101249.88;5106026;27;20032;-73
2024/01/24 05:33:33;;;;;;;38.28;7.38;;;;;;;11.93;100.00;101241.28;5093412;27;20525;-73
2024/01/24 05:35:59;;;;;;;42.95;7.22;;;;;;;11.91;100.00;101243.22;5088911;27;20055;-74
2024/01/24 05:38:24;;;;;;;38.08;7.05;;;;;;;11.86;100.00;101250.66;5074007;27;20036;-74
2024/01/24 05:40:50;;;;;;;32.88;6.97;;;;;;;11.89;100.00;101248.63;5087592;27;20768;-74
2024/01/24 05:43:16;;;;;;;30.27;6.72;;;;;;;11.85;100.00;101259.63;5107053;27;20036;-74
2024/01/24 05:45:41;;;;;;;49.55;8.57;;;;;;;11.79;100.00;101255.47;5084976;27;20529;-73
2024/01/24 05:48:08;;;;;;;41.80;8.10;;;;;;;11.85;100.00;101262.31;5073504;27;20136;-74
2024/01/24 05:50:33;;;;;;;28.55;8.27;;;;;;;11.77;100.00;101285.94;5094213;27;20073;-74
2024/01/24 05:52:59;;;;;;;41.00;8.88;;;;;;;11.75;100.00;101299.38;5097893;27;20020;-74
2024/01/24 05:55:24;;;;;;;43.05;8.43;;;;;;;11.72;100.00;101307.59;5071600;28;20041;-73
2024/01/24 05:57:50;;;;;;;47.17;9.63;;;;;;;11.79;100.00;101292.03;5092471;27;20774;-73
2024/01/24 06:00:16;;;;;;;45.30;8.60;;;;;;;11.79;100.00;101310.72;5094370;27;20041;-73
2024/01/24 06:02:43;;;;;;;40.75;7.93;;;;;;;11.87;100.00;101316.50;5096267;27;20133;-73
2024/01/24 06:05:09;;;;;;;36.83;7.15;;;;;;;11.79;100.00;101321.41;5092701;27;20050;-72
2024/01/24 06:07:34;;;;;;;39.42;8.32;;;;;;;11.79;100.00;101306.25;5094284;27;20028;-73
2024/01/24 06:10:00;;;;;;;42.88;10.20;;;;;;;11.89;100.00;101298.56;5093555;27;20032;-73
2024/01/24 06:12:27;;;;;;;43.08;9.63;;;;;;;11.82;100.00;101310.59;5071501;27;20035;-73
2024/01/24 06:14:55;;;;;;;50.45;9.05;;;;;;;11.82;100.00;101334.63;5089570;27;20326;-73
2024/01/24 06:17:22;;;;;;;52.97;10.52;;;;;;;11.77;100.00;101342.03;5079619;27;20132;-74
2024/01/24 06:19:47;;;;;;;41.05;8.30;;;;;;;11.85;100.00;101359.38;5092804;27;20040;-73
2024/01/24 06:22:13;;;;;;;53.75;10.40;;;;;;;11.86;100.00;101365.56;5071705;27;20739;-72
2024/01/24 06:24:38;;;;;;;43.25;10.80;;;;;;;11.85;100.00;101364.72;5086510;27;20040;-72
2024/01/24 06:27:04;;;;;;;45.30;9.23;;;;;;;11.70;100.00;101349.56;5092349;27;20028;-73
2024/01/24 06:29:30;;;;;;;45.83;9.52;;;;;;;11.61;100.00;101372.34;5088638;27;20043;-73
2024/01/24 06:31:57;;;;;;;46.38;8.80;;;;;;;11.49;100.00;101377.53;5095431;27;20049;-72
2024/01/24 06:34:22;;;;;;;51.33;10.30;;;;;;;11.52;100.00;101388.03;5092656;27;20472;-73
2024/01/24 06:36:49;;;;;;;63.22;10.80;;;;;;;11.46;100.00;101375.06;5092892;27;20045;-73
2024/01/24 06:39:14;;;;;;;46.60;10.77;;;;;;;11.42;100.00;101371.69;5092077;27;20046;-72
2024/01/24 06:41:40;;;;;;;58.70;11.45;;;;;;;11.31;100.00;101387.50;5101968;27;20063;-72
2024/01/24 06:44:05;;;;;;;47.83;10.02;;;;;;;11.25;100.00;101378.03;5094495;27;20428;-73
2024/01/24 06:46:33;;;;;;;52.45;9.70;;;;;;;11.22;100.00;101386.19;5089628;27;20035;-73
2024/01/24 06:48:58;;;;;;;45.28;10.13;;;;;;;11.18;100.00;101391.81;5096621;27;20039;-72
2024/01/24 06:51:24;;;;;;;52.78;9.60;;;;;;;11.15;100.00;101417.72;5091732;27;20032;-73
2024/01/24 06:53:50;;;;;;;51.08;11.25;;;;;;;11.10;100.00;101413.59;5090623;27;20041;-72
2024/01/24 06:56:15;;;;;;;53.38;9.02;;;;;;;11.09;100.00;101431.44;5095169;27;20121;-73
2024/01/24 06:58:41;;;;;;;57.33;11.00;;;;;;;11.04;100.00;101435.28;5100358;27;20034;-74
2024/01/24 07:01:06;;;;;;;51.70;9.63;;;;;;;10.97;100.00;101434.75;5093854;27;26239;-72
2024/01/24 07:03:33;;;;;;;60.20;10.82;;;;;;;10.97;100.00;101452.59;5086326;27;20067;-72
2024/01/24 07:05:58;;;;;;;50.92;10.50;;;;;;;10.91;100.00;101415.56;5088030;27;20606;-73
2024/01/24 07:08:24;;;;;;;65.18;11.30;;;;;;;10.94;100.00;101456.28;5097561;27;20599;-73
2024/01/24 07:10:50;;;;;;;66.60;10.25;;;;;;;10.76;100.00;101438.63;5094824;27;20032;-72
2024/01/24 07:13:15;;;;;;;56.25;10.52;;;;;;;10.73;100.00;101460.97;5093365;27;20036;-73
2024/01/24 07:15:42;;;;;;;56.25;11.13;;;;;;;10.77;100.00;101445.69;5092574;27;20889;-73
2024/01/24 07:18:08;;;;;;;55.55;9.68;;;;;;;10.69;100.00;101453.22;5058459;27;20024;-73
2024/01/24 07:20:33;;;;;;;59.50;11.45;;;;;;;10.61;100.00;101456.31;5088472;27;20403;-72
2024/01/24 07:22:59;;;;;;;54.53;11.02;;;;;;;10.69;100.00;101475.41;5100828;27;20494;-73
2024/01/24 07:25:24;;;;;;;64.53;11.75;;;;;;;10.56;100.00;101469.03;5099116;27;20221;-73
2024/01/24 07:27:50;;;;;;;51.33;9.70;;;;;;;10.53;100.00;101478.03;5085199;27;20355;-73
2024/01/24 07:30:16;;;;;;;58.42;12.38;;;;;;;10.54;100.00;101487.78;5090421;27;20040;-73
2024/01/24 07:32:42;;;;;;;76.18;12.85;;;;;;;10.49;100.00;101476.50;5091217;27;20043;-74
2024/01/24 07:35:11;;;;;;;69.10;13.20;;;;;;;10.43;100.00;101479.47;5089843;27;20365;-72
2024/01/24 07:37:37;;;;;;;58.35;11.18;;;;;;;10.37;100.00;101475.31;5091002;27;20051;-72
2024/01/24 07:40:03;;;;;;;56.97;10.85;;;;;;;10.35;100.00;101506.56;5084248;27;20078;-72
2024/01/24 07:42:29;;;;;;;51.63;11.40;;;;;;;10.34;100.00;101499.50;5079802;27;20032;-73
2024/01/24 07:44:55;;;;;;;52.95;11.25;;;;;;;10.36;100.00;101520.75;5094411;27;20039;-72
2024/01/24 07:47:20;;;;;;;72.97;12.60;;;;;;;10.37;100.00;101533.97;5093451;27;20059;-73
2024/01/24 07:49:46;;;;;;;64.35;13.23;;;;;;;10.33;100.00;101518.22;5070129;27;20596;-72
2024/01/24 07:52:12;;;;;;;69.57;11.38;;;;;;;10.30;100.00;101529.06;5074518;27;20382;-72
2024/01/24 07:54:37;;;;;;;72.80;13.43;;;;;;;10.35;100.00;101509.22;5082730;27;20028;-73
2024/01/24 07:57:03;;;;;;;62.78;12.60;;;;;;;10.28;100.00;101506.94;5090085;27;20930;-72
2024/01/24 07:59:29;;;;;;;70.10;12.80;;;;;;;10.36;100.00;101536.72;5106315;27;20031;-72
2024/01/24 08:01:55;;;;;;;61.13;11.25;;;;;;;10.29;100.00;101548.63;5089233;27;20167;-73
2024/01/24 08:04:21;;;;;;;58.83;12.73;;;;;;;10.26;100.00;101557.66;5100460;27;20028;-72
2024/01/24 08:06:47;;;;;;;76.55;13.65;;;;;;;10.22;100.00;101548.06;5089313;27;20036;-72
2024/01/24 08:09:13;;;;;;;79.32;14.10;;;;;;;10.24;100.00;101551.56;5097634;27;20035;-73
2024/01/24 08:11:39;;;;;;;58.45;13.65;;;;;;;10.21;100.00;101527.69;5088722;27;20659;-72
2024/01/24 08:14:06;;;;;;;63.13;12.57;;;;;;;10.24;100.00;101546.22;5083159;27;20060;-72
2024/01/24 08:16:31;;;;;;;55.17;11.45;;;;;;;10.20;100.00;101541.09;5091686;27;20047;-72
2024/01/24 08:19:01;;;;;;;61.38;11.77;;;;;;;10.28;100.00;101565.56;5095626;27;20032;-73
2024/01/24 08:21:27;;;;;;;74.20;13.10;;;;;;;10.30;100.00;101556.56;5093486;27;20083;-73
2024/01/24 08:23:53;;;;;;;70.85;11.77;;;;;;;10.27;100.00;101555.84;5090043;27;20034;-73
2024/01/24 08:26:19;;;;;;;53.90;12.50;;;;;;;10.29;100.00;101561.97;5095324;27;20025;-72
2024/01/24 08:28:44;;;;;;;60.60;11.68;;;;;;;10.27;100.00;101563.84;5069071;27;20036;-72
2024/01/24 08:31:10;;;;;;;69.95;11.68;;;;;;;10.25;100.00;101581.75;5095884;27;20043;-73
2024/01/24 08:33:36;;;;;;;63.38;10.98;;;;;;;10.33;100.00;101592.84;5093332;27;20043;-72
2024/01/24 08:36:02;;;;;;;65.45;12.25;;;;;;;10.36;100.00;101576.72;5076375;27;20156;-72
2024/01/24 08:38:28;;;;;;;53.97;12.05;;;;;;;10.35;100.00;101593.66;5092701;27;20063;-74
2024/01/24 08:40:54;;;;;;;65.22;12.95;;;;;;;10.20;100.00;101579.28;5090038;27;20043;-73
2024/01/24 08:43:19;;;;;;;59.92;11.88;;;;;;;10.25;100.00;101589.75;5086599;27;20027;-73
2024/01/24 08:45:45;;;;;;;66.38;14.02;;;;;;;10.33;100.00;101609.72;5089315;27;20035;-73
2024/01/24 08:48:10;;;;;;;56.55;11.23;;;;;;;10.29;100.00;101596.63;5090925;27;20040;-73
2024/01/24 08:50:36;;;;;;;62.53;11.82;;;;;;;10.31;100.00;101624.06;5085412;27;20039;-73
2024/01/24 08:53:02;;;;;;;59.75;11.30;;;;;;;10.30;100.00;101625.88;5085027;27;20031;-72
2024/01/24 08:55:28;;;;;;;60.95;12.98;;;;;;;10.35;100.00;101617.66;5086948;27;20217;-72
2024/01/24 08:57:53;;;;;;;58.95;11.82;;;;;;;10.34;100.00;101613.25;5093106;27;20040;-73
2024/01/24 09:00:19;;;;;;;49.35;10.48;;;;;;;10.35;100.00;101621.19;5094502;27;20507;-72
2024/01/24 09:02:46;;;;;;;63.22;11.68;;;;;;;10.43;100.00;101641.25;5073334;27;20450;-73
2024/01/24 09:05:12;;;;;;;54.75;11.30;;;;;;;10.41;100.00;101627.16;5085830;27;21106;-72
2024/01/24 09:07:37;;;;;;;51.72;9.77;;;;;;;10.45;100.00;101648.25;5070082;27;20044;-72
2024/01/24 09:10:03;;;;;;;47.22;10.00;;;;;;;10.62;100.00;101647.41;5073492;27;20036;-72
2024/01/24 09:12:30;;;;;;;63.58;13.50;;;;;;;10.73;100.00;101660.19;5090830;27;20043;-72
2024/01/24 09:14:56;;;;;;;52.13;11.05;;;;;;;10.70;100.00;101655.03;5088542;27;20272;-73
2024/01/24 09:17:21;;;;;;;53.60;10.73;;;;;;;10.62;100.00;101684.75;5083006;27;20047;-73
2024/01/24 09:19:47;;;;;;;58.75;10.82;;;;;;;10.61;100.00;101678.53;5077881;27;20086;-73
2024/01/24 09:22:13;;;;;;;56.72;10.95;;;;;;;10.52;100.00;101675.47;5083586;27;20751;-72
2024/01/24 09:24:38;;;;;;;60.47;11.70;;;;;;;10.70;100.00;101684.38;5063600;27;20414;-72
2024/01/24 09:27:04;;;;;;;61.90;12.30;;;;;;;10.64;100.00;101661.50;5089101;27;20700;-72
2024/01/24 09:29:30;;;;;;;62.65;12.27;;;;;;;10.55;100.00;101681.53;5098615;27;20034;-73
2024/01/24 09:31:55;;;;;;;69.15;12.35;;;;;;;10.56;100.00;101664.56;5099577;27;20032;-73
2024/01/24 09:34:23;;;;;;;63.67;13.10;;;;;;;10.46;100.00;101676.63;5097212;27;20039;-72
2024/01/24 09:36:49;;;;;;;57.38;12.13;;;;;;;10.59;100.00;101680.44;5076065;27;20533;-73
2024/01/24 09:39:14;;;;;;;64.15;11.77;;;;;;;10.70;100.00;101693.22;5098692;27;20070;-73
2024/01/24 09:41:43;;;;;;;62.22;12.55;;;;;;;10.56;100.00;101706.38;5095163;27;20029;-73
2024/01/24 09:44:11;;;;;;;56.13;10.73;;;;;;;10.60;100.00;101694.63;5079165;27;20032;-73
2024/01/24 09:46:37;;;;;;;42.25;9.65;;;;;;;10.69;100.00;101739.50;5095887;27;20031;-72
2024/01/24 09:49:05;;;;;;;61.33;10.45;;;;;;;10.67;100.00;101740.53;5078283;28;20060;-72
2024/01/24 09:51:34;;;;;;;60.65;10.38;;;;;;;10.64;100.00;101704.19;5091194;27;20039;-73
2024/01/24 09:54:08;;;;;;;62.75;12.32;;;;;;;10.69;100.00;101722.63;5075424;28;20047;-72
2024/01/24 09:56:37;;;;;;;63.45;12.07;;;;;;;10.79;100.00;101734.56;5078722;27;20046;-73
2024/01/24 09:59:05;;;;;;;66.63;12.80;;;;;;;10.71;100.00;101728.78;5093166;27;20042;-72
2024/01/24 10:01:34;;;;;;;65.07;12.27;;;;;;;10.78;100.00;101738.19;5076462;27;20039;-72
2024/01/24 10:04:01;;;;;;;54.72;11.55;;;;;;;10.71;100.00;101729.63;5071209;28;20039;-73
2024/01/24 10:06:30;;;;;;;53.20;10.52;;;;;;;10.72;100.00;101752.69;5100300;27;20156;-72
2024/01/24 10:08:56;;;;;;;59.85;11.57;;;;;;;10.84;100.00;101749.44;5090788;27;20042;-72
2024/01/24 10:11:23;;;;;;;70.13;12.63;;;;;;;10.76;100.00;101753.41;5097441;27;20549;-72
2024/01/24 10:13:49;;;;;;;61.53;12.13;;;;;;;10.83;100.00;101738.81;5094469;27;20028;-72
2024/01/24 10:16:14;;;;;;;56.08;10.95;;;;;;;10.84;100.00;101749.44;5089137;27;20050;-73
2024/01/24 10:18:41;;;;;;;52.55;10.65;;;;;;;10.96;100.00;101753.28;5092608;27;20151;-73
2024/01/24 10:21:11;;;;;;;68.40;12.40;;;;;;;11.01;100.00;101753.06;5091117;27;20107;-73
2024/01/24 10:23:37;;;;;;;62.30;12.77;;;;;;;10.97;100.00;101740.78;5089293;27;20036;-73
2024/01/24 10:26:03;;;;;;;73.18;13.05;;;;;;;11.00;100.00;101754.84;5095785;27;20035;-72
2024/01/24 10:28:28;;;;;;;58.22;12.82;;;;;;;11.06;100.00;101754.53;5085138;27;20032;-73
2024/01/24 10:30:54;;;;;;;64.90;12.98;;;;;;;11.11;100.00;101765.84;5079763;27;20115;-73
2024/01/24 10:33:19;;;;;;;56.05;11.65;;;;;;;11.28;100.00;101790.81;5086279;27;20031;-73
2024/01/24 10:35:45;;;;;;;53.30;11.93;;;;;;;11.23;100.00;101785.72;5079508;27;20040;-73
2024/01/24 10:38:11;;;;;;;53.38;10.63;;;;;;;11.22;100.00;101767.09;5092193;27;20044;-72
2024/01/24 10:40:41;;;;;;;54.80;10.90;;;;;;;11.27;100.00;101784.63;5088098;27;20040;-73
2024/01/24 10:43:14;;;;;;;56.97;11.98;;;;;;;11.22;100.00;101783.13;5076821;27;20115;-73
2024/01/24 10:45:43;;;;;;;66.22;12.20;;;;;;;11.14;100.00;101794.19;5074331;27;20059;-73
2024/01/24 10:48:10;;;;;;;53.40;10.27;;;;;;;11.10;100.00;101781.94;5099922;27;20024;-74
2024/01/24 10:50:37;;;;;;;57.78;10.45;;;;;;;11.13;100.00;101784.44;5097980;27;20059;-75
2024/01/24 10:53:03;;;;;;;50.55;11.98;;;;;;;11.06;100.00;101791.91;5087916;27;20039;-74
2024/01/24 10:55:31;;;;;;;77.25;13.73;;;;;;;11.15;100.00;101796.78;5089011;27;20051;-74
2024/01/24 10:57:57;;;;;;;51.67;11.98;;;;;;;11.15;100.00;101802.13;5089902;27;20084;-75
2024/01/24 11:00:28;;;;;;;65.97;13.00;;;;;;;11.14;100.00;101811.09;5094143;27;20548;-74
2024/01/24 11:02:54;;;;;;;53.92;12.82;;;;;;;11.19;100.00;101834.00;5071654;27;20041;-74